Time;durP1;ratioP1;P1;durP2;ratioP2;P2;SDS_P1;SDS_P2;PMS_P1;PMS_P2;Temp;Humidity;BMP_temperature;BMP_pressure;BME280_temperature;BME280_humidity;BME280_pressure;Samples;Min_cycle;Max_cycle;Signal;HPM_P1;HPM_P2
2023/08/23 00:01:13;;;;;;;6.53;3.13;;;;;;;;;;5078622;28;20044;-78
2023/08/23 00:03:39;;;;;;;5.78;3.00;;;;;;;;;;5055953;28;20057;-78
2023/08/23 00:06:05;;;;;;;5.45;2.50;;;;;;;;;;5058599;28;20040;-77
2023/08/23 00:08:31;;;;;;;4.60;2.30;;;;;;;;;;5058554;28;20048;-77
2023/08/23 00:10:58;;;;;;;4.50;2.45;;;;;;;;;;5076158;28;20186;-77
2023/08/23 00:13:24;;;;;;;5.88;3.50;;;;;;;;;;5050685;28;20036;-78
2023/08/23 00:15:51;;;;;;;5.85;3.65;;;;;;;;;;5075630;28;20040;-80
2023/08/23 00:18:17;;;;;;;5.75;3.97;;;;;;;;;;5069830;28;20063;-78
2023/08/23 00:20:43;;;;;;;7.38;4.68;;;;;;;;;;5078070;28;20067;-78
2023/08/23 00:23:09;;;;;;;8.68;4.88;;;;;;;;;;5067086;28;20490;-79
2023/08/23 00:25:35;;;;;;;6.75;4.60;;;;;;;;;;5072537;28;20040;-78
2023/08/23 00:28:01;;;;;;;6.13;4.30;;;;;;;;;;5079103;28;20052;-79
2023/08/23 00:30:27;;;;;;;7.40;4.90;;;;;;;;;;5079284;28;20045;-79
2023/08/23 00:32:53;;;;;;;11.20;5.45;;;;;;;;;;5078873;28;20041;-79
2023/08/23 00:35:19;;;;;;;8.40;5.30;;;;;;;;;;5078536;28;20045;-77
2023/08/23 00:37:45;;;;;;;7.70;4.90;;;;;;;;;;5073246;28;20041;-78
2023/08/23 00:40:11;;;;;;;6.68;5.05;;;;;;;;;;5079531;28;20453;-78
2023/08/23 00:42:37;;;;;;;10.27;5.15;;;;;;;;;;5074702;28;20478;-78
2023/08/23 00:45:04;;;;;;;6.80;4.82;;;;;;;;;;5077921;28;20044;-77
2023/08/23 00:47:30;;;;;;;7.40;5.40;;;;;;;;;;5076808;28;20047;-78
2023/08/23 00:49:57;;;;;;;9.13;5.93;;;;;;;;;;5077968;28;20045;-78
2023/08/23 00:52:27;;;;;;;9.15;5.75;;;;;;;;;;5072564;28;20045;-78
2023/08/23 00:54:54;;;;;;;7.85;5.45;;;;;;;;;;5059850;28;20045;-78
2023/08/23 00:57:21;;;;;;;12.90;5.70;;;;;;;;;;5069187;28;20426;-78
2023/08/23 00:59:47;;;;;;;10.65;5.90;;;;;;;;;;5075352;28;20039;-78
2023/08/23 01:02:13;;;;;;;9.43;6.05;;;;;;;;;;5068748;28;20053;-78
2023/08/23 01:04:39;;;;;;;10.82;5.80;;;;;;;;;;5073157;28;20040;-78
2023/08/23 01:07:16;;;;;;;7.72;5.63;;;;;;;;;;5073687;28;20037;-77
2023/08/23 01:09:49;;;;;;;11.32;5.80;;;;;;;;;;5071423;28;20052;-78
2023/08/23 01:12:28;;;;;;;9.45;5.53;;;;;;;;;;5074672;28;20133;-77
2023/08/23 01:15:05;;;;;;;7.40;5.40;;;;;;;;;;5073031;28;20041;-78
2023/08/23 01:17:32;;;;;;;8.55;5.50;;;;;;;;;;5059273;28;20067;-78
2023/08/23 01:19:59;;;;;;;10.55;5.70;;;;;;;;;;5073972;28;20060;-78
2023/08/23 01:22:28;;;;;;;8.07;5.55;;;;;;;;;;5070426;28;20048;-78
2023/08/23 01:24:54;;;;;;;7.47;5.40;;;;;;;;;;5071007;28;20048;-78
2023/08/23 01:27:20;;;;;;;9.20;5.53;;;;;;;;;;5074463;28;20075;-78
2023/08/23 01:29:46;;;;;;;10.27;5.90;;;;;;;;;;5074065;28;20040;-77
2023/08/23 01:32:15;;;;;;;8.30;5.40;;;;;;;;;;5074819;28;20037;-78
2023/08/23 01:34:44;;;;;;;8.85;5.90;;;;;;;;;;5068772;28;20387;-78
2023/08/23 01:37:11;;;;;;;7.57;5.50;;;;;;;;;;5076260;28;20076;-78
2023/08/23 01:39:37;;;;;;;9.20;4.88;;;;;;;;;;5078533;28;20051;-78
2023/08/23 01:42:03;;;;;;;6.25;4.30;;;;;;;;;;5077603;28;20037;-77
2023/08/23 01:44:29;;;;;;;7.95;4.80;;;;;;;;;;5076427;28;20041;-77
2023/08/23 01:46:55;;;;;;;7.95;4.80;;;;;;;;;;5075760;28;20052;-77
2023/08/23 01:49:21;;;;;;;8.25;4.30;;;;;;;;;;5076700;28;20048;-77
2023/08/23 01:51:48;;;;;;;6.07;3.38;;;;;;;;;;5077983;28;20041;-77
2023/08/23 01:54:14;;;;;;;7.68;4.47;;;;;;;;;;5071828;28;20525;-78
2023/08/23 01:56:40;;;;;;;6.13;4.38;;;;;;;;;;5077330;28;20045;-78
2023/08/23 01:59:06;;;;;;;7.38;4.50;;;;;;;;;;5075167;28;20083;-78
2023/08/23 02:01:32;;;;;;;6.55;4.18;;;;;;;;;;5056319;28;20095;-77
2023/08/23 02:03:58;;;;;;;6.72;4.70;;;;;;;;;;5041322;28;20051;-78
2023/08/23 02:06:24;;;;;;;7.30;4.63;;;;;;;;;;5076848;28;20041;-77
2023/08/23 02:08:51;;;;;;;6.75;4.43;;;;;;;;;;5076675;28;20052;-77
2023/08/23 02:11:17;;;;;;;7.28;4.50;;;;;;;;;;5073016;28;20474;-78
2023/08/23 02:13:43;;;;;;;8.00;5.05;;;;;;;;;;5064946;28;20049;-77
2023/08/23 02:16:09;;;;;;;9.25;4.70;;;;;;;;;;5055822;28;20055;-78
2023/08/23 02:18:35;;;;;;;7.70;4.90;;;;;;;;;;5072363;28;20047;-77
2023/08/23 02:21:01;;;;;;;6.50;5.00;;;;;;;;;;5067810;28;20053;-78
2023/08/23 02:23:27;;;;;;;29.17;5.22;;;;;;;;;;5077086;28;20055;-78
2023/08/23 02:25:53;;;;;;;25.45;5.60;;;;;;;;;;5071804;28;20055;-78
2023/08/23 02:28:19;;;;;;;53.92;6.80;;;;;;;;;;5055770;28;20053;-78
2023/08/23 02:30:45;;;;;;;8.63;5.20;;;;;;;;;;5064044;28;20044;-78
2023/08/23 02:33:12;;;;;;;7.10;5.80;;;;;;;;;;5057723;28;21165;-78
2023/08/23 02:35:46;;;;;;;8.20;5.70;;;;;;;;;;5077576;28;20040;-78
2023/08/23 02:38:13;;;;;;;9.90;6.40;;;;;;;;;;5077324;28;20058;-78
2023/08/23 02:40:42;;;;;;;9.07;6.63;;;;;;;;;;5068529;28;20045;-78
2023/08/23 02:43:08;;;;;;;9.98;7.65;;;;;;;;;;5076529;28;20049;-77
2023/08/23 02:45:38;;;;;;;8.73;6.70;;;;;;;;;;5042623;28;20123;-78
2023/08/23 02:48:04;;;;;;;7.57;6.07;;;;;;;;;;5077086;28;20043;-78
2023/08/23 02:50:30;;;;;;;9.27;6.90;;;;;;;;;;5076283;28;20127;-78
2023/08/23 02:52:57;;;;;;;8.27;6.72;;;;;;;;;;5077299;28;20045;-78
2023/08/23 02:55:23;;;;;;;10.05;7.22;;;;;;;;;;5075129;28;20056;-78
2023/08/23 02:57:49;;;;;;;9.68;6.60;;;;;;;;;;5058103;28;20499;-78
2023/08/23 03:00:15;;;;;;;8.45;6.45;;;;;;;;;;5071089;28;20045;-78
2023/08/23 03:02:41;;;;;;;7.80;6.40;;;;;;;;;;5073069;28;20107;-78
2023/08/23 03:05:07;;;;;;;7.80;5.95;;;;;;;;;;5069570;28;20107;-78
2023/08/23 03:07:34;;;;;;;7.65;5.80;;;;;;;;;;5076294;28;20406;-78
2023/08/23 03:10:00;;;;;;;8.52;5.97;;;;;;;;;;5066993;28;20383;-78
2023/08/23 03:12:26;;;;;;;9.43;6.70;;;;;;;;;;5074882;28;20049;-78
2023/08/23 03:14:52;;;;;;;9.90;7.15;;;;;;;;;;5068400;28;20407;-79
2023/08/23 03:17:18;;;;;;;10.20;7.47;;;;;;;;;;5065658;28;20093;-77
2023/08/23 03:19:44;;;;;;;9.48;6.38;;;;;;;;;;5067050;28;20059;-78
2023/08/23 03:22:11;;;;;;;9.98;6.75;;;;;;;;;;5064953;28;20511;-78
2023/08/23 03:24:37;;;;;;;9.65;6.60;;;;;;;;;;5071081;28;20125;-79
2023/08/23 03:27:03;;;;;;;10.27;6.25;;;;;;;;;;5058342;28;20044;-79
2023/08/23 03:29:29;;;;;;;7.75;5.60;;;;;;;;;;5074499;28;20056;-78
2023/08/23 03:31:56;;;;;;;7.65;5.82;;;;;;;;;;5063506;28;20033;-78
2023/08/23 03:34:22;;;;;;;7.47;6.00;;;;;;;;;;5069991;28;20040;-78
2023/08/23 03:36:49;;;;;;;9.02;6.20;;;;;;;;;;5071047;28;20044;-78
2023/08/23 03:39:15;;;;;;;6.38;5.40;;;;;;;;;;5075545;28;20059;-77
2023/08/23 03:41:41;;;;;;;9.23;5.65;;;;;;;;;;5067911;28;20087;-78
2023/08/23 03:44:07;;;;;;;8.23;5.80;;;;;;;;;;5071739;28;20045;-78
2023/08/23 03:46:33;;;;;;;8.75;5.88;;;;;;;;;;5075477;28;20441;-78
2023/08/23 03:48:59;;;;;;;9.32;6.13;;;;;;;;;;5057933;28;20044;-78
2023/08/23 03:51:25;;;;;;;11.52;7.13;;;;;;;;;;5072071;28;20049;-78
2023/08/23 03:53:51;;;;;;;9.57;6.50;;;;;;;;;;5072383;28;20509;-78
2023/08/23 03:56:17;;;;;;;9.07;6.60;;;;;;;;;;5075424;28;20052;-78
2023/08/23 03:58:43;;;;;;;9.05;6.00;;;;;;;;;;5071543;28;20102;-78
2023/08/23 04:01:10;;;;;;;10.00;6.40;;;;;;;;;;5065581;28;20049;-78
2023/08/23 04:03:36;;;;;;;9.13;6.90;;;;;;;;;;5074727;28;20037;-78
2023/08/23 04:06:02;;;;;;;10.32;6.40;;;;;;;;;;5067278;28;20559;-78
2023/08/23 04:08:29;;;;;;;7.55;6.03;;;;;;;;;;5072532;28;20045;-78
2023/08/23 04:10:55;;;;;;;12.60;6.75;;;;;;;;;;5068727;28;20083;-76
2023/08/23 04:13:21;;;;;;;8.75;5.80;;;;;;;;;;5074380;28;20051;-77
2023/08/23 04:15:47;;;;;;;11.80;6.32;;;;;;;;;;5073322;28;20052;-78
2023/08/23 04:18:13;;;;;;;7.88;6.45;;;;;;;;;;5044966;28;21120;-77
2023/08/23 04:20:39;;;;;;;10.27;6.20;;;;;;;;;;5067605;28;20052;-77
2023/08/23 04:23:06;;;;;;;38.70;8.73;;;;;;;;;;5051487;28;20072;-77
2023/08/23 04:25:32;;;;;;;15.45;9.15;;;;;;;;;;5068653;28;20131;-77
2023/08/23 04:27:58;;;;;;;18.77;9.73;;;;;;;;;;5070998;28;20529;-77
2023/08/23 04:30:24;;;;;;;27.92;10.98;;;;;;;;;;5059195;28;20044;-77
2023/08/23 04:32:50;;;;;;;41.72;10.27;;;;;;;;;;5072451;28;20040;-77
2023/08/23 04:35:16;;;;;;;12.80;9.02;;;;;;;;;;5074759;28;20052;-77
2023/08/23 04:37:42;;;;;;;13.50;9.13;;;;;;;;;;5075046;28;20056;-78
2023/08/23 04:40:08;;;;;;;21.10;10.38;;;;;;;;;;5074806;28;20490;-77
2023/08/23 04:42:36;;;;;;;14.30;8.68;;;;;;;;;;5069660;28;20045;-77
2023/08/23 04:45:03;;;;;;;11.60;7.78;;;;;;;;;;5074019;28;20116;-79
2023/08/23 04:47:30;;;;;;;19.70;8.95;;;;;;;;;;5062300;28;20474;-78
2023/08/23 04:49:56;;;;;;;9.75;7.68;;;;;;;;;;5072205;28;20041;-77
2023/08/23 04:52:22;;;;;;;13.05;8.27;;;;;;;;;;5072819;28;20080;-78
2023/08/23 04:54:49;;;;;;;10.25;8.18;;;;;;;;;;5073217;28;20112;-78
2023/08/23 04:57:15;;;;;;;10.20;7.88;;;;;;;;;;5073261;28;20040;-78
2023/08/23 04:59:41;;;;;;;21.13;8.35;;;;;;;;;;5070054;28;20462;-78
2023/08/23 05:02:07;;;;;;;10.73;7.80;;;;;;;;;;5069094;28;20041;-78
2023/08/23 05:04:33;;;;;;;10.90;8.50;;;;;;;;;;5064622;28;20124;-78
2023/08/23 05:06:59;;;;;;;9.13;7.72;;;;;;;;;;5065621;28;20049;-78
2023/08/23 05:09:26;;;;;;;9.75;7.93;;;;;;;;;;5073878;28;20051;-78
2023/08/23 05:11:52;;;;;;;8.73;7.50;;;;;;;;;;5058439;28;20143;-78
2023/08/23 05:14:18;;;;;;;9.57;8.57;;;;;;;;;;5078047;28;20056;-78
2023/08/23 05:16:44;;;;;;;11.23;8.68;;;;;;;;;;5077975;28;20044;-79
2023/08/23 05:19:10;;;;;;;13.27;9.35;;;;;;;;;;5066916;28;20051;-79
2023/08/23 05:21:36;;;;;;;12.70;9.18;;;;;;;;;;5055644;28;20403;-79
2023/08/23 05:24:03;;;;;;;10.38;8.07;;;;;;;;;;5063331;28;20040;-79
2023/08/23 05:26:29;;;;;;;10.65;7.60;;;;;;;;;;5077073;28;20037;-78
2023/08/23 05:28:55;;;;;;;11.73;7.63;;;;;;;;;;5075289;28;20041;-78
2023/08/23 05:31:21;;;;;;;18.90;8.77;;;;;;;;;;5077368;28;20048;-78
2023/08/23 05:33:47;;;;;;;13.55;9.75;;;;;;;;;;5073676;28;20461;-79
2023/08/23 05:36:13;;;;;;;13.35;11.07;;;;;;;;;;5069385;28;20068;-78
2023/08/23 05:38:39;;;;;;;12.18;10.23;;;;;;;;;;5083790;28;20119;-78
2023/08/23 05:41:05;;;;;;;11.98;10.75;;;;;;;;;;5077584;28;20139;-78
2023/08/23 05:43:31;;;;;;;10.85;9.60;;;;;;;;;;5065701;28;20052;-78
2023/08/23 05:45:58;;;;;;;10.10;9.00;;;;;;;;;;5059486;28;20375;-78
2023/08/23 05:48:24;;;;;;;12.00;8.90;;;;;;;;;;5058297;28;20098;-80
2023/08/23 05:50:50;;;;;;;11.07;9.85;;;;;;;;;;5077970;28;20041;-79
2023/08/23 05:53:19;;;;;;;9.25;8.20;;;;;;;;;;5074569;28;20436;-78
2023/08/23 05:55:47;;;;;;;11.32;9.25;;;;;;;;;;5079578;28;20043;-78
2023/08/23 05:58:13;;;;;;;11.05;9.60;;;;;;;;;;5061772;28;20048;-79
2023/08/23 06:00:39;;;;;;;11.45;10.23;;;;;;;;;;5077844;28;20108;-78
2023/08/23 06:03:05;;;;;;;11.52;9.90;;;;;;;;;;5076773;28;20082;-78
2023/08/23 06:05:31;;;;;;;11.18;9.52;;;;;;;;;;5072482;28;20379;-79
2023/08/23 06:07:57;;;;;;;12.50;10.43;;;;;;;;;;5062625;28;20040;-78
2023/08/23 06:10:23;;;;;;;12.02;9.95;;;;;;;;;;5074120;28;20052;-78
2023/08/23 06:12:49;;;;;;;14.73;11.27;;;;;;;;;;5066269;28;20182;-79
2023/08/23 06:15:15;;;;;;;14.15;11.27;;;;;;;;;;5066393;28;20040;-78
2023/08/23 06:17:41;;;;;;;14.63;11.05;;;;;;;;;;5064320;28;20071;-76
2023/08/23 06:20:08;;;;;;;16.20;13.60;;;;;;;;;;5060864;28;20060;-77
2023/08/23 06:22:34;;;;;;;16.58;13.70;;;;;;;;;;5053778;28;20049;-75
2023/08/23 06:25:00;;;;;;;12.80;10.82;;;;;;;;;;5082600;28;20052;-76
2023/08/23 06:27:26;;;;;;;17.23;12.93;;;;;;;;;;5045501;28;20095;-76
2023/08/23 06:29:52;;;;;;;17.30;13.55;;;;;;;;;;5077602;28;20054;-77
2023/08/23 06:32:19;;;;;;;17.48;13.75;;;;;;;;;;5057930;28;20040;-77
2023/08/23 06:34:45;;;;;;;18.48;13.60;;;;;;;;;;5054748;28;20361;-77
2023/08/23 06:37:11;;;;;;;16.55;14.27;;;;;;;;;;5071782;28;20041;-76
2023/08/23 06:39:37;;;;;;;14.75;13.00;;;;;;;;;;5048313;28;20525;-78
2023/08/23 06:42:03;;;;;;;18.95;15.50;;;;;;;;;;5067925;28;20167;-77
2023/08/23 06:44:30;;;;;;;18.52;15.68;;;;;;;;;;5076638;28;20049;-77
2023/08/23 06:46:56;;;;;;;18.63;15.07;;;;;;;;;;5065895;28;20473;-78
2023/08/23 06:49:22;;;;;;;20.27;15.75;;;;;;;;;;5075483;28;20979;-78
2023/08/23 06:51:48;;;;;;;19.75;16.90;;;;;;;;;;5074412;28;20040;-78
2023/08/23 06:54:14;;;;;;;18.70;16.27;;;;;;;;;;5070460;28;20123;-78
2023/08/23 06:56:40;;;;;;;20.98;16.15;;;;;;;;;;5051830;28;20041;-78
2023/08/23 06:59:06;;;;;;;19.83;16.25;;;;;;;;;;5069345;28;21051;-77
2023/08/23 07:01:32;;;;;;;19.35;14.75;;;;;;;;;;5060671;28;20259;-77
2023/08/23 07:03:59;;;;;;;17.55;15.25;;;;;;;;;;5070977;28;20040;-77
2023/08/23 07:06:25;;;;;;;17.88;14.10;;;;;;;;;;5078382;28;20044;-77
2023/08/23 07:08:51;;;;;;;18.73;12.80;;;;;;;;;;5068717;28;20048;-77
2023/08/23 07:11:17;;;;;;;16.50;12.98;;;;;;;;;;5068691;28;20051;-76
2023/08/23 07:13:43;;;;;;;19.35;14.43;;;;;;;;;;5075075;28;20052;-76
2023/08/23 07:16:09;;;;;;;17.13;13.45;;;;;;;;;;5075507;28;20048;-76
2023/08/23 07:18:35;;;;;;;20.10;14.68;;;;;;;;;;5057518;28;20060;-77
2023/08/23 07:21:03;;;;;;;16.90;14.15;;;;;;;;;;5074051;28;20068;-78
2023/08/23 07:23:29;;;;;;;20.85;13.02;;;;;;;;;;5074901;28;20426;-78
2023/08/23 07:25:55;;;;;;;15.18;10.93;;;;;;;;;;5054200;28;20048;-78
2023/08/23 07:28:21;;;;;;;13.10;11.15;;;;;;;;;;5068705;28;20049;-77
2023/08/23 07:30:56;;;;;;;19.10;11.90;;;;;;;;;;5058090;28;20053;-77
2023/08/23 07:33:23;;;;;;;13.30;9.63;;;;;;;;;;5055395;28;20128;-77
2023/08/23 07:35:59;;;;;;;13.32;10.18;;;;;;;;;;5038293;28;20053;-77
2023/08/23 07:38:25;;;;;;;14.80;10.88;;;;;;;;;;5055172;28;20063;-76
2023/08/23 07:40:51;;;;;;;13.30;10.07;;;;;;;;;;5059359;28;20045;-78
2023/08/23 07:43:17;;;;;;;13.90;10.18;;;;;;;;;;5066684;28;20466;-76
2023/08/23 07:45:43;;;;;;;15.00;10.90;;;;;;;;;;5061079;28;20079;-77
2023/08/23 07:48:09;;;;;;;13.18;10.00;;;;;;;;;;5060904;28;20068;-77
2023/08/23 07:50:35;;;;;;;11.27;9.10;;;;;;;;;;5066914;28;20044;-77
2023/08/23 07:53:02;;;;;;;11.27;8.23;;;;;;;;;;5051993;28;20547;-77
2023/08/23 07:55:28;;;;;;;10.25;8.27;;;;;;;;;;5056109;28;20403;-76
2023/08/23 07:57:54;;;;;;;11.45;8.85;;;;;;;;;;5056060;28;20491;-77
2023/08/23 08:00:20;;;;;;;12.93;9.55;;;;;;;;;;5059382;28;20041;-77
2023/08/23 08:02:46;;;;;;;11.98;9.27;;;;;;;;;;5053534;28;20426;-76
2023/08/23 08:05:12;;;;;;;12.73;8.50;;;;;;;;;;5059190;28;20506;-78
2023/08/23 08:07:38;;;;;;;10.07;7.28;;;;;;;;;;5062656;28;20060;-77
2023/08/23 08:10:05;;;;;;;10.98;8.93;;;;;;;;;;5054760;28;20048;-77
2023/08/23 08:12:31;;;;;;;11.05;7.28;;;;;;;;;;5061392;28;20075;-77
2023/08/23 08:14:59;;;;;;;10.35;7.90;;;;;;;;;;5057219;28;20055;-77
2023/08/23 08:17:26;;;;;;;9.48;7.07;;;;;;;;;;5067544;28;20046;-77
2023/08/23 08:19:52;;;;;;;10.75;7.75;;;;;;;;;;5069081;28;20048;-77
2023/08/23 08:22:18;;;;;;;11.05;7.60;;;;;;;;;;5049181;28;20095;-78
2023/08/23 08:24:44;;;;;;;11.93;7.28;;;;;;;;;;5069475;28;20159;-76
2023/08/23 08:27:10;;;;;;;9.48;5.35;;;;;;;;;;5069954;28;20052;-76
2023/08/23 08:29:36;;;;;;;7.25;5.20;;;;;;;;;;5061735;28;20052;-76
2023/08/23 08:32:02;;;;;;;11.13;6.88;;;;;;;;;;5063572;28;20067;-77
2023/08/23 08:34:28;;;;;;;9.05;6.00;;;;;;;;;;5058816;28;20041;-77
2023/08/23 08:36:54;;;;;;;8.63;5.70;;;;;;;;;;5063849;28;20072;-77
2023/08/23 08:39:20;;;;;;;8.02;5.22;;;;;;;;;;5059816;28;20078;-77
2023/08/23 08:41:46;;;;;;;7.97;5.90;;;;;;;;;;5069170;28;20045;-76
2023/08/23 08:44:13;;;;;;;9.15;5.72;;;;;;;;;;5062935;28;20044;-76
2023/08/23 08:46:39;;;;;;;9.70;6.10;;;;;;;;;;5068796;28;20041;-77
2023/08/23 08:49:06;;;;;;;11.70;6.32;;;;;;;;;;5033588;28;20376;-76
2023/08/23 08:51:35;;;;;;;8.88;6.13;;;;;;;;;;5049227;28;20479;-77
2023/08/23 08:54:02;;;;;;;10.90;6.10;;;;;;;;;;5066773;28;20048;-77
2023/08/23 08:56:28;;;;;;;8.43;5.53;;;;;;;;;;5066404;28;20174;-76
2023/08/23 08:58:55;;;;;;;9.00;4.53;;;;;;;;;;5061321;28;20045;-76
2023/08/23 09:01:22;;;;;;;7.20;4.28;;;;;;;;;;5037415;28;20071;-77
2023/08/23 09:03:49;;;;;;;6.00;3.50;;;;;;;;;;5061198;28;20040;-77
2023/08/23 09:06:15;;;;;;;8.40;4.55;;;;;;;;;;5068623;28;20043;-77
2023/08/23 09:08:41;;;;;;;6.72;4.20;;;;;;;;;;5060879;28;20037;-77
2023/08/23 09:11:07;;;;;;;6.90;3.42;;;;;;;;;;5068144;28;20147;-76
2023/08/23 09:13:33;;;;;;;6.60;3.60;;;;;;;;;;5063290;28;20577;-77
2023/08/23 09:15:59;;;;;;;6.60;3.45;;;;;;;;;;5048218;28;20124;-77
2023/08/23 09:18:26;;;;;;;5.97;3.33;;;;;;;;;;5056603;28;20356;-77
2023/08/23 09:20:52;;;;;;;6.15;3.40;;;;;;;;;;5053786;28;20060;-77
2023/08/23 09:23:18;;;;;;;6.95;3.10;;;;;;;;;;5063191;28;20044;-77
2023/08/23 09:25:44;;;;;;;5.00;2.10;;;;;;;;;;5071852;28;20045;-76
2023/08/23 09:28:13;;;;;;;4.05;1.70;;;;;;;;;;5048999;28;20495;-77
2023/08/23 09:30:39;;;;;;;5.40;1.85;;;;;;;;;;5062120;28;20052;-77
2023/08/23 09:33:05;;;;;;;5.03;1.77;;;;;;;;;;5061007;28;20186;-77
2023/08/23 09:35:31;;;;;;;5.35;1.80;;;;;;;;;;5056564;28;20080;-76
2023/08/23 09:37:57;;;;;;;5.38;1.80;;;;;;;;;;5059827;28;20434;-76
2023/08/23 09:40:25;;;;;;;5.65;1.98;;;;;;;;;;5065669;28;20508;-76
2023/08/23 09:42:52;;;;;;;4.43;1.80;;;;;;;;;;5059262;28;20049;-77
2023/08/23 09:45:21;;;;;;;6.28;1.70;;;;;;;;;;5070831;28;20058;-77
2023/08/23 09:47:51;;;;;;;4.38;1.42;;;;;;;;;;5054366;28;20124;-77
2023/08/23 09:50:18;;;;;;;7.03;1.95;;;;;;;;;;5072191;28;20527;-77
2023/08/23 09:52:45;;;;;;;6.00;2.00;;;;;;;;;;5044833;28;20048;-77
2023/08/23 09:55:12;;;;;;;5.40;1.75;;;;;;;;;;5060941;28;20084;-77
2023/08/23 09:57:38;;;;;;;4.90;1.70;;;;;;;;;;5073127;28;20059;-77
2023/08/23 10:00:04;;;;;;;8.45;1.70;;;;;;;;;;5075392;28;20036;-77
2023/08/23 10:02:30;;;;;;;7.40;2.00;;;;;;;;;;5075496;28;20048;-77
2023/08/23 10:04:56;;;;;;;4.53;1.65;;;;;;;;;;5053842;28;20053;-78
2023/08/23 10:07:23;;;;;;;7.05;1.80;;;;;;;;;;5075836;28;20055;-77
2023/08/23 10:09:50;;;;;;;5.57;1.90;;;;;;;;;;5075050;28;20044;-78
2023/08/23 10:12:16;;;;;;;3.97;1.85;;;;;;;;;;5075498;28;20048;-77
2023/08/23 10:14:46;;;;;;;5.72;2.10;;;;;;;;;;5075937;28;20046;-77
2023/08/23 10:17:14;;;;;;;7.07;2.38;;;;;;;;;;5075686;28;20380;-78
2023/08/23 10:19:40;;;;;;;5.40;2.00;;;;;;;;;;5075905;28;20052;-77
2023/08/23 10:22:07;;;;;;;5.22;1.98;;;;;;;;;;5075502;28;20139;-78
2023/08/23 10:24:34;;;;;;;4.25;1.55;;;;;;;;;;5071656;28;21128;-77
2023/08/23 10:27:09;;;;;;;4.05;1.38;;;;;;;;;;5058778;28;20580;-78
2023/08/23 10:29:38;;;;;;;6.47;1.50;;;;;;;;;;5066805;28;20080;-76
2023/08/23 10:32:08;;;;;;;4.53;1.50;;;;;;;;;;5064370;28;20049;-77
2023/08/23 10:34:35;;;;;;;6.60;1.45;;;;;;;;;;5063004;28;20041;-76
2023/08/23 10:37:01;;;;;;;5.70;1.50;;;;;;;;;;5063844;28;20051;-76
2023/08/23 10:39:28;;;;;;;4.25;1.48;;;;;;;;;;5070139;28;20072;-77
2023/08/23 10:41:54;;;;;;;4.53;1.40;;;;;;;;;;5075788;28;20084;-77
2023/08/23 10:44:21;;;;;;;4.07;1.20;;;;;;;;;;5074977;28;20402;-78
2023/08/23 10:46:50;;;;;;;7.47;1.80;;;;;;;;;;5075271;28;20119;-77
2023/08/23 10:49:20;;;;;;;7.15;1.60;;;;;;;;;;5074659;28;20041;-77
2023/08/23 10:51:47;;;;;;;5.57;1.58;;;;;;;;;;5075936;28;20083;-77
2023/08/23 10:54:13;;;;;;;7.25;1.60;;;;;;;;;;5068790;28;20087;-77
2023/08/23 10:56:40;;;;;;;6.13;1.65;;;;;;;;;;5075597;28;20572;-76
2023/08/23 10:59:09;;;;;;;5.05;1.55;;;;;;;;;;5068006;28;20121;-77
2023/08/23 11:01:38;;;;;;;4.53;1.48;;;;;;;;;;5069606;28;20053;-76
2023/08/23 11:04:04;;;;;;;6.10;1.60;;;;;;;;;;5054355;28;20060;-77
2023/08/23 11:06:31;;;;;;;5.13;1.70;;;;;;;;;;5062944;28;20071;-76
2023/08/23 11:08:57;;;;;;;4.88;1.50;;;;;;;;;;5064898;28;20072;-76
2023/08/23 11:11:28;;;;;;;5.40;1.50;;;;;;;;;;5067297;28;20052;-77
2023/08/23 11:13:54;;;;;;;;;;;;;;;;;;5064599;28;20091;-77
2023/08/23 11:16:21;;;;;;;7.30;1.85;;;;;;;;;;5074657;28;19921;-77
2023/08/23 11:18:47;;;;;;;5.57;1.67;;;;;;;;;;5074775;28;20131;-77
2023/08/23 11:21:13;;;;;;;5.97;1.60;;;;;;;;;;5072554;28;20057;-76
2023/08/23 11:23:39;;;;;;;5.75;1.80;;;;;;;;;;5068630;28;20040;-77
2023/08/23 11:26:05;;;;;;;4.70;1.70;;;;;;;;;;5053541;28;20144;-77
2023/08/23 11:28:31;;;;;;;4.70;1.60;;;;;;;;;;5073211;28;20421;-77
2023/08/23 11:31:06;;;;;;;5.38;1.70;;;;;;;;;;5073660;28;20490;-77
2023/08/23 11:33:33;;;;;;;6.15;1.80;;;;;;;;;;5058981;28;20091;-77
2023/08/23 11:35:59;;;;;;;7.57;1.98;;;;;;;;;;5060564;28;20049;-77
2023/08/23 11:38:28;;;;;;;5.50;1.63;;;;;;;;;;5061162;28;20049;-77
2023/08/23 11:40:54;;;;;;;7.10;2.08;;;;;;;;;;5056006;28;20052;-78
2023/08/23 11:43:22;;;;;;;5.32;1.90;;;;;;;;;;5072815;28;20071;-76
2023/08/23 11:45:50;;;;;;;6.63;1.83;;;;;;;;;;5062451;28;20045;-76
2023/08/23 11:48:16;;;;;;;7.35;1.58;;;;;;;;;;5050012;28;20064;-77
2023/08/23 11:50:44;;;;;;;4.53;1.90;;;;;;;;;;5062343;28;20049;-77
2023/08/23 11:53:11;;;;;;;6.07;1.95;;;;;;;;;;5060825;28;20059;-76
2023/08/23 11:55:37;;;;;;;7.28;1.90;;;;;;;;;;5062277;28;20040;-77
2023/08/23 11:58:04;;;;;;;4.75;1.70;;;;;;;;;;5074707;28;20378;-77
2023/08/23 12:00:30;;;;;;;8.40;2.40;;;;;;;;;;5074750;28;20052;-77
2023/08/23 12:02:56;;;;;;;6.68;2.30;;;;;;;;;;5056606;28;20052;-77
2023/08/23 12:05:22;;;;;;;5.82;2.50;;;;;;;;;;5074633;28;20094;-77
2023/08/23 12:07:48;;;;;;;5.97;2.03;;;;;;;;;;5072103;28;20486;-77
2023/08/23 12:10:14;;;;;;;4.18;1.65;;;;;;;;;;5073533;28;20040;-77
2023/08/23 12:12:40;;;;;;;6.32;2.08;;;;;;;;;;5066382;28;20526;-77
2023/08/23 12:15:07;;;;;;;6.35;1.70;;;;;;;;;;5054026;28;20124;-77
2023/08/23 12:17:34;;;;;;;6.10;1.67;;;;;;;;;;5049371;28;20064;-78
2023/08/23 12:20:00;;;;;;;5.95;1.65;;;;;;;;;;5054518;28;20057;-78
2023/08/23 12:22:26;;;;;;;4.57;1.50;;;;;;;;;;5057714;28;20055;-78
2023/08/23 12:24:52;;;;;;;6.38;1.65;;;;;;;;;;5071346;28;20052;-76
2023/08/23 12:27:18;;;;;;;5.15;1.73;;;;;;;;;;5064296;28;20041;-77
2023/08/23 12:29:45;;;;;;;5.95;1.77;;;;;;;;;;5062343;28;20463;-77
2023/08/23 12:32:11;;;;;;;8.07;1.92;;;;;;;;;;5073085;28;20090;-78
2023/08/23 12:34:39;;;;;;;7.05;1.60;;;;;;;;;;5066805;28;20075;-77
2023/08/23 12:37:05;;;;;;;8.77;1.60;;;;;;;;;;5063113;28;20075;-77
2023/08/23 12:39:31;;;;;;;12.57;2.80;;;;;;;;;;5074124;28;20073;-77
2023/08/23 12:41:57;;;;;;;5.85;1.90;;;;;;;;;;5070248;28;20048;-77
2023/08/23 12:44:24;;;;;;;7.90;1.70;;;;;;;;;;5054525;28;20053;-77
2023/08/23 12:46:50;;;;;;;5.55;1.50;;;;;;;;;;5073390;28;20044;-77
2023/08/23 12:49:17;;;;;;;6.32;1.73;;;;;;;;;;5066933;28;20095;-75
2023/08/23 12:51:43;;;;;;;7.47;1.73;;;;;;;;;;5063716;28;20122;-77
2023/08/23 12:54:09;;;;;;;36.65;4.72;;;;;;;;;;5071689;28;20048;-76
2023/08/23 12:56:36;;;;;;;5.88;1.75;;;;;;;;;;5073736;28;20048;-76
2023/08/23 12:59:03;;;;;;;9.02;1.70;;;;;;;;;;5068053;28;20041;-75
2023/08/23 13:01:30;;;;;;;8.88;2.63;;;;;;;;;;5068412;28;20040;-77
2023/08/23 13:03:56;;;;;;;6.93;1.50;;;;;;;;;;5074184;28;20056;-76
2023/08/23 13:06:22;;;;;;;6.05;1.50;;;;;;;;;;5074040;28;20044;-76
2023/08/23 13:08:48;;;;;;;7.18;1.63;;;;;;;;;;5072594;28;20076;-76
2023/08/23 13:11:14;;;;;;;6.88;1.85;;;;;;;;;;5056189;28;20072;-76
2023/08/23 13:13:41;;;;;;;7.30;2.20;;;;;;;;;;5062031;28;20052;-76
2023/08/23 13:16:07;;;;;;;5.43;1.67;;;;;;;;;;5064221;28;20117;-76
2023/08/23 13:18:33;;;;;;;6.03;1.70;;;;;;;;;;5063448;28;20127;-75
2023/08/23 13:20:59;;;;;;;4.78;1.80;;;;;;;;;;5063336;28;20049;-76
2023/08/23 13:23:26;;;;;;;6.03;2.17;;;;;;;;;;5072559;28;20060;-76
2023/08/23 13:25:52;;;;;;;6.22;2.00;;;;;;;;;;5074432;28;20551;-76
2023/08/23 13:28:18;;;;;;;8.13;2.25;;;;;;;;;;5056116;28;20109;-76
2023/08/23 13:30:44;;;;;;;5.63;2.00;;;;;;;;;;5068423;28;20122;-77
2023/08/23 13:33:10;;;;;;;5.18;1.80;;;;;;;;;;5071050;28;20055;-78
2023/08/23 13:35:36;;;;;;;5.22;1.90;;;;;;;;;;5074319;28;20056;-76
2023/08/23 13:38:02;;;;;;;7.07;2.30;;;;;;;;;;5057864;28;20041;-76
2023/08/23 13:40:28;;;;;;;6.38;2.38;;;;;;;;;;5061037;28;20041;-76
2023/08/23 13:42:54;;;;;;;5.80;2.35;;;;;;;;;;5064772;28;20446;-76
2023/08/23 13:45:20;;;;;;;5.65;2.33;;;;;;;;;;5064092;28;20450;-76
2023/08/23 13:47:46;;;;;;;6.22;2.50;;;;;;;;;;5063124;28;20040;-76
2023/08/23 13:50:12;;;;;;;8.55;2.75;;;;;;;;;;5077421;28;20106;-76
2023/08/23 13:52:38;;;;;;;7.82;3.03;;;;;;;;;;5078628;28;20049;-76
2023/08/23 13:55:05;;;;;;;7.07;3.10;;;;;;;;;;5057701;28;20478;-76
2023/08/23 13:57:31;;;;;;;10.73;3.20;;;;;;;;;;5077147;28;20486;-76
2023/08/23 13:59:58;;;;;;;5.57;2.50;;;;;;;;;;5078023;28;20047;-76
2023/08/23 14:02:24;;;;;;;8.07;3.00;;;;;;;;;;5060018;28;20044;-77
2023/08/23 14:04:50;;;;;;;8.32;2.90;;;;;;;;;;5070401;28;20510;-77
2023/08/23 14:07:16;;;;;;;7.05;2.22;;;;;;;;;;5060078;28;20047;-77
2023/08/23 14:09:42;;;;;;;7.20;2.40;;;;;;;;;;5079681;28;20048;-76
2023/08/23 14:12:08;;;;;;;6.40;2.28;;;;;;;;;;5067676;28;20496;-76
2023/08/23 14:14:34;;;;;;;8.30;2.50;;;;;;;;;;5066041;28;20040;-77
2023/08/23 14:17:00;;;;;;;8.10;2.67;;;;;;;;;;5076469;28;20040;-76
2023/08/23 14:19:31;;;;;;;7.30;2.35;;;;;;;;;;5076417;28;20041;-77
2023/08/23 14:21:57;;;;;;;;;;;;;;;;;;5071918;28;20449;-76
2023/08/23 14:24:23;;;;;;;6.47;2.15;;;;;;;;;;5075695;28;19920;-76
2023/08/23 14:26:49;;;;;;;7.50;2.10;;;;;;;;;;5063602;28;20540;-78
2023/08/23 14:29:15;;;;;;;69.07;8.15;;;;;;;;;;5076476;28;20085;-77
2023/08/23 14:31:41;;;;;;;33.50;4.30;;;;;;;;;;5066934;28;20049;-78
2023/08/23 14:34:07;;;;;;;30.83;4.78;;;;;;;;;;5062241;28;20052;-77